createdAt,value
2023-03-14T00:00:27.785Z,42.65
2023-03-14T00:03:14.875Z,43.97
2023-03-14T00:06:40.941Z,40.22
2023-03-14T00:09:19.792Z,56.90
2023-03-14T00:12:03.038Z,42.72
2023-03-14T00:14:33.175Z,45.60
2023-03-14T00:17:03.551Z,39.10
2023-03-14T00:19:37.815Z,47.55
2023-03-14T00:22:07.611Z,44.95
2023-03-14T00:24:34.539Z,48.80
2023-03-14T00:27:03.066Z,46.83
2023-03-14T00:29:32.565Z,47.67
2023-03-14T00:32:02.297Z,52.17
2023-03-14T00:34:39.162Z,43.67
2023-03-14T00:37:05.806Z,52.28
2023-03-14T00:39:38.727Z,41.70
2023-03-14T00:42:05.455Z,42.17
2023-03-14T00:44:37.927Z,40.35
2023-03-14T00:47:08.119Z,39.90
2023-03-14T00:49:38.037Z,33.75
2023-03-14T00:52:18.384Z,32.95
2023-03-14T00:54:45.506Z,27.98
2023-03-14T00:57:21.341Z,28.05
2023-03-14T00:59:48.323Z,20.20
2023-03-14T01:02:18.482Z,21.10
2023-03-14T01:04:47.733Z,17.77
2023-03-14T01:07:36.581Z,13.70
2023-03-14T01:10:10.916Z,21.10
2023-03-14T01:12:50.216Z,13.40
2023-03-14T01:15:25.274Z,11.07
2023-03-14T01:17:58.129Z,11.63
2023-03-14T01:20:24.966Z,13.38
2023-03-14T01:22:51.933Z,15.52
2023-03-14T01:25:19.400Z,12.70
2023-03-14T01:27:46.438Z,9.60
2023-03-14T01:30:19.226Z,12.18
2023-03-14T01:32:49.184Z,12.77
2023-03-14T01:35:22.965Z,8.05
2023-03-14T01:37:49.708Z,16.05
2023-03-14T01:40:19.495Z,19.60
2023-03-14T01:43:01.484Z,11.52
2023-03-14T01:48:19.864Z,18.88
2023-03-14T01:50:46.855Z,11.30
2023-03-14T01:53:16.575Z,7.68
2023-03-14T01:55:43.480Z,19.35
2023-03-14T01:58:29.816Z,7.32
2023-03-14T02:01:08.333Z,12.77
2023-03-14T02:03:47.762Z,8.55
2023-03-14T02:06:19.000Z,11.13
2023-03-14T02:08:50.713Z,9.85
2023-03-14T02:11:19.498Z,10.98
2023-03-14T02:13:57.753Z,8.35
2023-03-14T02:16:24.915Z,15.38
2023-03-14T02:18:51.770Z,10.88
2023-03-14T02:21:23.246Z,11.35
2023-03-14T02:24:08.838Z,8.95
2023-03-14T02:26:53.507Z,10.25
2023-03-14T02:29:23.167Z,5.28
2023-03-14T02:31:52.278Z,10.38
2023-03-14T02:34:19.974Z,13.65
2023-03-14T02:36:47.647Z,11.55
2023-03-14T02:39:31.013Z,11.35
2023-03-14T02:41:57.700Z,20.92
2023-03-14T02:44:24.400Z,7.95
2023-03-14T02:47:03.911Z,15.07
2023-03-14T02:49:37.760Z,9.25
2023-03-14T02:52:17.609Z,8.15
2023-03-14T02:54:44.843Z,10.25
2023-03-14T02:57:12.656Z,8.43
2023-03-14T02:59:39.331Z,5.03
2023-03-14T03:02:06.160Z,7.93
2023-03-14T03:04:37.596Z,9.68
2023-03-14T03:07:10.006Z,10.93
2023-03-14T03:09:36.834Z,12.07
2023-03-14T03:12:16.569Z,16.95
2023-03-14T03:14:44.433Z,9.50
2023-03-14T03:17:15.629Z,7.38
2023-03-14T03:19:44.751Z,11.30
2023-03-14T03:22:11.491Z,10.05
2023-03-14T03:24:41.588Z,8.57
2023-03-14T03:27:10.913Z,14.70
2023-03-14T03:29:39.019Z,11.15
2023-03-14T03:32:05.837Z,10.35
2023-03-14T03:34:32.526Z,10.98
2023-03-14T03:37:05.480Z,13.68
2023-03-14T03:40:03.650Z,13.68
2023-03-14T03:42:32.442Z,10.85
2023-03-14T03:45:00.408Z,12.13
2023-03-14T03:47:31.892Z,8.13
2023-03-14T03:50:01.659Z,6.43
2023-03-14T03:52:28.586Z,9.15
2023-03-14T03:54:55.432Z,5.32
2023-03-14T03:57:31.366Z,10.27
2023-03-14T04:00:06.824Z,7.03
2023-03-14T04:02:34.009Z,6.00
2023-03-14T04:05:04.440Z,10.57
2023-03-14T04:07:33.439Z,9.88
2023-03-14T04:10:00.163Z,9.80
2023-03-14T04:12:40.821Z,9.02
2023-03-14T04:15:18.828Z,6.32
2023-03-14T04:17:45.571Z,5.32
2023-03-14T04:20:15.452Z,6.68
2023-03-14T04:22:45.097Z,8.73
2023-03-14T04:25:11.813Z,7.65
2023-03-14T04:27:42.006Z,12.20
2023-03-14T04:30:09.571Z,9.00
2023-03-14T04:32:36.370Z,5.85
2023-03-14T04:35:03.151Z,10.02
2023-03-14T04:37:29.965Z,4.50
2023-03-14T04:40:07.273Z,8.27
2023-03-14T04:42:38.848Z,6.80
2023-03-14T04:45:06.252Z,12.68
2023-03-14T04:47:34.338Z,8.30
2023-03-14T04:50:01.026Z,10.70
2023-03-14T04:52:35.972Z,10.20
2023-03-14T04:55:03.109Z,8.85
2023-03-14T04:57:33.196Z,7.43
2023-03-14T04:59:59.965Z,10.93
2023-03-14T05:02:33.120Z,5.75
2023-03-14T05:04:59.842Z,7.35
2023-03-14T05:07:29.596Z,12.18
2023-03-14T05:09:56.491Z,10.07
2023-03-14T05:12:28.306Z,12.15
2023-03-14T05:15:01.770Z,11.57
2023-03-14T05:17:34.551Z,7.57
2023-03-14T05:20:21.527Z,12.68
2023-03-14T05:22:48.894Z,7.93
2023-03-14T05:25:15.704Z,11.93
2023-03-14T05:27:52.385Z,8.38
2023-03-14T05:30:19.778Z,13.20
2023-03-14T05:32:46.552Z,7.93
2023-03-14T05:35:16.502Z,6.88
2023-03-14T05:37:43.270Z,8.48
2023-03-14T05:40:14.405Z,6.05
2023-03-14T05:42:41.171Z,6.72
2023-03-14T05:45:08.542Z,5.53
2023-03-14T05:47:35.361Z,5.13
2023-03-14T05:50:05.252Z,9.57
2023-03-14T05:52:38.572Z,16.67
2023-03-14T05:55:20.855Z,4.43
2023-03-14T06:00:37.369Z,10.82
2023-03-14T06:03:12.350Z,14.57
2023-03-14T06:05:39.677Z,14.52
2023-03-14T06:08:06.341Z,10.00
2023-03-14T06:10:41.674Z,9.45
2023-03-14T06:13:18.754Z,15.52
2023-03-14T06:15:49.784Z,12.85
2023-03-14T06:18:21.080Z,10.10
2023-03-14T06:20:56.488Z,10.60
2023-03-14T06:23:24.236Z,12.43
2023-03-14T06:26:00.334Z,13.25
2023-03-14T06:28:35.255Z,15.38
2023-03-14T06:31:04.047Z,10.82
2023-03-14T06:33:33.316Z,11.38
2023-03-14T06:36:01.638Z,9.98
2023-03-14T06:38:28.527Z,15.77
2023-03-14T06:41:17.876Z,29.10
2023-03-14T06:43:42.691Z,16.48
2023-03-14T06:46:09.643Z,9.50
2023-03-14T06:48:38.641Z,13.90
2023-03-14T06:51:11.479Z,12.13
2023-03-14T06:53:52.547Z,21.55
2023-03-14T06:56:22.074Z,13.97
2023-03-14T06:58:50.361Z,18.95
2023-03-14T07:01:29.034Z,13.15
2023-03-14T07:03:56.975Z,14.45
2023-03-14T07:06:24.046Z,16.83
2023-03-14T07:08:51.004Z,15.57
2023-03-14T07:11:17.903Z,21.20
2023-03-14T07:13:55.998Z,12.68
2023-03-14T07:16:22.849Z,15.82
2023-03-14T07:18:50.441Z,11.00
2023-03-14T07:21:17.134Z,14.18
2023-03-14T07:23:46.991Z,16.35
2023-03-14T07:26:13.690Z,16.23
2023-03-14T07:28:40.418Z,18.05
2023-03-14T07:31:13.494Z,13.57
2023-03-14T07:33:41.422Z,8.93
2023-03-14T07:36:08.887Z,13.82
2023-03-14T07:38:38.854Z,15.63
2023-03-14T07:41:09.322Z,30.65
2023-03-14T07:43:48.396Z,16.40
2023-03-14T07:46:19.006Z,17.52
2023-03-14T07:49:08.977Z,14.90
2023-03-14T07:51:40.358Z,12.05
2023-03-14T07:54:07.117Z,12.73
2023-03-14T07:56:43.663Z,13.75
2023-03-14T07:59:10.348Z,16.52
2023-03-14T08:01:37.183Z,19.88
2023-03-14T08:06:44.500Z,16.77
2023-03-14T08:09:16.625Z,15.00
2023-03-14T08:11:44.501Z,27.42
2023-03-14T08:14:12.198Z,17.75
2023-03-14T08:16:49.961Z,8.65
2023-03-14T08:19:17.617Z,11.93
2023-03-14T08:21:53.913Z,18.38
2023-03-14T08:24:21.619Z,11.43
2023-03-14T08:26:54.003Z,9.27
2023-03-14T08:29:21.026Z,17.02
2023-03-14T08:32:03.954Z,9.43
2023-03-14T08:34:31.237Z,17.25
2023-03-14T08:36:57.916Z,12.05
2023-03-14T08:39:41.487Z,9.05
2023-03-14T08:42:17.804Z,10.15
2023-03-14T08:44:45.074Z,7.20
2023-03-14T08:47:20.913Z,12.45
2023-03-14T08:49:54.827Z,11.05
2023-03-14T08:52:34.343Z,9.15
2023-03-14T08:55:02.232Z,14.40
2023-03-14T08:57:29.164Z,14.90
2023-03-14T09:00:01.745Z,13.05
2023-03-14T09:02:31.666Z,10.10
2023-03-14T09:04:59.011Z,16.48
2023-03-14T09:07:38.854Z,10.38
2023-03-14T09:10:20.711Z,7.20
2023-03-14T09:12:58.171Z,14.68
2023-03-14T09:15:36.922Z,13.10
2023-03-14T09:18:26.866Z,12.55
2023-03-14T09:20:55.576Z,15.02
2023-03-14T09:23:32.860Z,13.82
2023-03-14T09:26:11.820Z,17.17
2023-03-14T09:29:12.052Z,10.38
2023-03-14T09:32:10.691Z,10.05
2023-03-14T09:34:40.329Z,11.55
2023-03-14T09:37:16.547Z,13.13
2023-03-14T09:40:01.227Z,11.60
2023-03-14T09:42:45.448Z,9.40
2023-03-14T09:46:06.592Z,11.57
2023-03-14T09:48:48.213Z,12.20
2023-03-14T09:51:31.012Z,8.70
2023-03-14T09:54:03.597Z,15.25
2023-03-14T09:56:42.145Z,7.95
2023-03-14T09:59:14.659Z,13.10
2023-03-14T10:01:41.911Z,6.95
2023-03-14T10:04:15.730Z,12.75
2023-03-14T10:06:49.588Z,12.35
2023-03-14T10:09:28.789Z,9.02
2023-03-14T10:12:09.040Z,6.55
2023-03-14T10:14:45.395Z,10.68
2023-03-14T10:17:40.616Z,6.80
2023-03-14T10:20:33.631Z,6.22
2023-03-14T10:23:29.697Z,6.75
2023-03-14T10:26:06.935Z,6.05
2023-03-14T10:28:43.558Z,9.80
2023-03-14T10:31:16.560Z,10.00
2023-03-14T10:33:59.541Z,7.80
2023-03-14T10:36:30.510Z,5.28
2023-03-14T10:39:45.536Z,10.20
2023-03-14T10:42:48.083Z,8.65
2023-03-14T10:45:38.449Z,12.13
2023-03-14T10:48:28.513Z,7.80
2023-03-14T10:51:38.384Z,3.58
2023-03-14T10:54:32.368Z,5.53
2023-03-14T10:57:05.356Z,6.30
2023-03-14T10:59:59.842Z,5.93
2023-03-14T11:03:00.191Z,4.10
2023-03-14T11:05:49.275Z,3.00
2023-03-14T11:08:29.123Z,5.80
2023-03-14T11:11:26.081Z,6.40
2023-03-14T11:14:19.421Z,4.07
2023-03-14T11:17:31.434Z,8.48
2023-03-14T11:20:06.704Z,5.80
2023-03-14T11:22:44.848Z,4.03
2023-03-14T11:25:41.817Z,2.60
2023-03-14T11:28:30.064Z,5.30
2023-03-14T11:31:41.766Z,2.88
2023-03-14T11:34:32.826Z,5.60
2023-03-14T11:37:24.534Z,3.38
2023-03-14T11:40:32.869Z,2.60
2023-03-14T11:43:08.341Z,5.68
2023-03-14T11:45:51.176Z,3.40
2023-03-14T11:49:06.352Z,1.88
2023-03-14T11:51:52.174Z,5.55
2023-03-14T11:55:04.005Z,4.35
2023-03-14T11:57:32.039Z,5.22
2023-03-14T12:00:14.200Z,4.43
2023-03-14T12:03:15.535Z,2.65
2023-03-14T12:06:16.882Z,11.93
2023-03-14T12:09:01.865Z,6.60
2023-03-14T12:11:46.227Z,9.15
2023-03-14T12:14:42.050Z,15.40
2023-03-14T12:17:20.746Z,13.68
2023-03-14T12:19:48.505Z,11.93
2023-03-14T12:22:42.564Z,11.57
2023-03-14T12:25:26.875Z,13.15
2023-03-14T12:28:09.331Z,9.43
2023-03-14T12:30:56.749Z,22.90
2023-03-14T12:33:31.820Z,14.88
2023-03-14T12:36:40.413Z,14.70
2023-03-14T12:39:26.319Z,22.17
2023-03-14T12:42:08.192Z,32.42
2023-03-14T12:47:20.070Z,21.63
2023-03-14T12:49:56.363Z,17.17
2023-03-14T12:52:49.529Z,13.00
2023-03-14T12:55:40.033Z,17.95
2023-03-14T12:58:30.870Z,26.35
2023-03-14T13:01:05.815Z,18.75
2023-03-14T13:03:56.832Z,19.95
2023-03-14T13:07:03.692Z,17.42
2023-03-14T13:09:36.699Z,25.38
2023-03-14T13:12:28.896Z,29.42
2023-03-14T13:15:15.111Z,29.67
2023-03-14T13:17:47.919Z,23.20
2023-03-14T13:20:25.636Z,22.98
2023-03-14T13:22:56.071Z,21.25
2023-03-14T13:25:23.716Z,19.02
2023-03-14T13:28:04.356Z,25.85
2023-03-14T13:31:07.393Z,17.83
2023-03-14T13:33:35.556Z,19.77
2023-03-14T13:36:06.637Z,21.55
2023-03-14T13:38:37.438Z,32.92
2023-03-14T13:41:13.726Z,18.88
2023-03-14T13:43:42.678Z,25.88
2023-03-14T13:46:22.666Z,17.02
2023-03-14T13:49:13.303Z,32.80
2023-03-14T13:51:50.741Z,21.77
2023-03-14T13:54:23.594Z,24.95
2023-03-14T13:57:34.459Z,28.25
2023-03-14T14:00:23.465Z,31.08
2023-03-14T14:02:50.922Z,30.05
2023-03-14T14:05:29.053Z,29.67
2023-03-14T14:07:57.194Z,22.30
2023-03-14T14:10:26.810Z,31.13
2023-03-14T14:13:05.697Z,24.55
2023-03-14T14:15:43.874Z,22.25
2023-03-14T14:18:22.254Z,32.10
2023-03-14T14:20:49.545Z,22.10
2023-03-14T14:23:20.591Z,31.02
2023-03-14T14:26:14.114Z,20.85
2023-03-14T14:28:44.631Z,29.42
2023-03-14T14:31:33.075Z,26.58
2023-03-14T14:34:18.427Z,31.15
2023-03-14T14:36:55.133Z,33.85
2023-03-14T14:39:36.866Z,37.10
2023-03-14T14:42:14.439Z,33.65
2023-03-14T14:44:43.395Z,39.72
2023-03-14T14:47:19.349Z,21.95
2023-03-14T14:49:47.759Z,33.30
2023-03-14T14:52:37.864Z,35.72
2023-03-14T14:55:12.817Z,30.48
2023-03-14T14:57:54.100Z,24.67
2023-03-14T15:00:32.747Z,41.28
2023-03-14T15:03:06.098Z,23.67
2023-03-14T15:05:37.276Z,38.92
2023-03-14T15:08:12.174Z,29.20
2023-03-14T15:10:51.645Z,35.90
2023-03-14T15:13:28.152Z,29.23
2023-03-14T15:15:56.952Z,23.48
2023-03-14T15:18:35.711Z,26.15
2023-03-14T15:21:05.497Z,19.80
2023-03-14T15:23:42.556Z,24.73
2023-03-14T15:26:23.935Z,18.60
2023-03-14T15:28:53.154Z,24.38
2023-03-14T15:31:23.698Z,20.38
2023-03-14T15:33:51.278Z,20.42
2023-03-14T15:36:55.450Z,25.42
2023-03-14T15:39:24.946Z,18.38
2023-03-14T15:41:51.490Z,15.57
2023-03-14T15:44:18.221Z,13.93
2023-03-14T15:46:52.266Z,19.02
2023-03-14T15:49:18.869Z,22.45
2023-03-14T15:51:48.669Z,13.85
2023-03-14T15:54:15.301Z,13.70
2023-03-14T15:56:42.042Z,17.20
2023-03-14T15:59:12.022Z,22.98
2023-03-14T16:01:49.650Z,17.02
2023-03-14T16:04:16.869Z,27.95
2023-03-14T16:06:51.070Z,15.30
2023-03-14T16:09:20.044Z,20.08
2023-03-14T16:11:59.399Z,21.98
2023-03-14T16:14:26.286Z,14.07
2023-03-14T16:16:54.330Z,18.70
2023-03-14T16:19:20.924Z,20.10
2023-03-14T16:22:00.287Z,20.00
2023-03-14T16:24:35.882Z,16.92
2023-03-14T16:27:02.974Z,20.08
2023-03-14T16:29:33.054Z,19.27
2023-03-14T16:31:59.713Z,17.33
2023-03-14T16:34:31.271Z,16.42
2023-03-14T16:37:06.635Z,23.00
2023-03-14T16:39:55.886Z,16.88
2023-03-14T16:42:29.907Z,21.05
2023-03-14T16:45:02.566Z,23.35
2023-03-14T16:47:31.175Z,17.95
2023-03-14T16:50:05.586Z,25.23
2023-03-14T16:52:32.394Z,18.30
2023-03-14T16:55:14.363Z,23.88
2023-03-14T17:03:21.492Z,24.00
2023-03-14T17:05:50.459Z,22.05
2023-03-14T17:08:30.888Z,22.77
2023-03-14T17:10:59.817Z,20.92
2023-03-14T17:13:36.649Z,18.63
2023-03-14T17:16:05.703Z,21.77
2023-03-14T17:18:35.235Z,23.85
2023-03-14T17:21:02.152Z,21.13
2023-03-14T17:23:33.652Z,18.73
2023-03-14T17:26:00.575Z,24.35
2023-03-14T17:28:29.354Z,20.55
2023-03-14T17:31:32.399Z,24.23
2023-03-14T17:33:59.650Z,22.15
2023-03-14T17:36:30.425Z,24.83
2023-03-14T17:39:00.028Z,23.17
2023-03-14T17:41:31.732Z,16.08
2023-03-14T17:46:33.621Z,23.17
2023-03-14T17:49:06.120Z,23.27
2023-03-14T17:51:32.945Z,15.90
2023-03-14T17:54:26.209Z,17.70
2023-03-14T17:57:05.804Z,16.05
2023-03-14T17:59:39.297Z,23.77
2023-03-14T18:02:10.061Z,20.77
2023-03-14T18:04:36.946Z,22.90
2023-03-14T18:07:04.841Z,15.15
2023-03-14T18:09:33.654Z,23.02
2023-03-14T18:12:08.069Z,17.35
2023-03-14T18:14:47.086Z,19.45
2023-03-14T18:17:15.350Z,17.92
2023-03-14T18:19:48.721Z,21.42
2023-03-14T18:22:16.315Z,15.80
2023-03-14T18:24:43.239Z,21.02
2023-03-14T18:27:16.280Z,20.13
2023-03-14T18:29:48.705Z,17.83
2023-03-14T18:32:18.614Z,22.20
2023-03-14T18:34:45.356Z,20.25
2023-03-14T18:37:12.911Z,19.35
2023-03-14T18:39:42.918Z,26.95
2023-03-14T18:42:12.341Z,24.58
2023-03-14T18:44:42.250Z,19.95
2023-03-14T18:47:10.207Z,22.42
2023-03-14T18:49:37.004Z,24.40
2023-03-14T18:52:11.338Z,27.60
2023-03-14T18:54:41.279Z,19.63
2023-03-14T18:57:08.453Z,22.33
2023-03-14T18:59:35.065Z,30.35
2023-03-14T19:02:01.890Z,28.52
2023-03-14T19:04:32.033Z,29.20
2023-03-14T19:06:59.711Z,25.15
2023-03-14T19:09:32.923Z,18.27
2023-03-14T19:12:03.688Z,26.85
2023-03-14T19:14:36.167Z,26.77
2023-03-14T19:17:02.920Z,26.67
2023-03-14T19:19:29.611Z,19.42
2023-03-14T19:21:59.978Z,25.05
2023-03-14T19:24:26.708Z,32.33
2023-03-14T19:26:59.515Z,35.20
2023-03-14T19:29:26.400Z,28.75
2023-03-14T19:31:54.226Z,35.42
2023-03-14T19:34:28.297Z,28.88
2023-03-14T19:37:11.950Z,31.00
2023-03-14T19:39:42.839Z,40.15
2023-03-14T19:42:10.960Z,27.87
2023-03-14T19:44:38.431Z,40.90
2023-03-14T19:47:09.707Z,41.30
2023-03-14T19:49:51.281Z,54.40
2023-03-14T19:52:21.033Z,50.30
2023-03-14T19:54:53.962Z,48.60
2023-03-14T19:57:27.631Z,44.67
2023-03-14T19:59:55.057Z,28.48
2023-03-14T20:02:22.768Z,37.45
2023-03-14T20:04:58.097Z,38.75
2023-03-14T20:07:30.829Z,35.05
2023-03-14T20:09:59.446Z,46.00
2023-03-14T20:12:49.252Z,46.22
2023-03-14T20:15:20.696Z,40.50
2023-03-14T20:20:16.451Z,53.45
2023-03-14T20:22:48.606Z,63.25
2023-03-14T20:25:25.330Z,58.17
2023-03-14T20:27:53.871Z,42.83
2023-03-14T20:30:27.406Z,50.53
2023-03-14T20:32:55.385Z,52.50
2023-03-14T20:35:28.592Z,49.95
2023-03-14T20:37:58.417Z,42.30
2023-03-14T20:40:28.799Z,43.03
2023-03-14T20:42:59.985Z,56.60
2023-03-14T20:45:29.659Z,63.10
2023-03-14T20:47:58.148Z,47.50
2023-03-14T20:50:50.033Z,56.65
2023-03-14T20:53:18.108Z,50.95
2023-03-14T20:55:44.878Z,50.72
2023-03-14T20:58:15.650Z,50.22
2023-03-14T21:00:51.021Z,45.33
2023-03-14T21:03:19.671Z,47.15
2023-03-14T21:06:04.383Z,46.05
2023-03-14T21:08:35.002Z,46.03
2023-03-14T21:11:03.691Z,55.88
2023-03-14T21:13:34.183Z,47.35
2023-03-14T21:16:03.379Z,40.63
2023-03-14T21:18:38.035Z,48.15
2023-03-14T21:21:10.952Z,49.42
2023-03-14T21:23:54.688Z,47.20
2023-03-14T21:26:41.280Z,48.40
2023-03-14T21:32:08.364Z,54.17
2023-03-14T21:34:34.946Z,43.40
2023-03-14T21:37:11.585Z,39.45
2023-03-14T21:39:59.230Z,48.78
2023-03-14T21:42:32.095Z,44.17
2023-03-14T21:44:58.645Z,48.03
2023-03-14T21:47:25.201Z,48.47
2023-03-14T21:49:58.307Z,44.92
2023-03-14T21:55:17.609Z,54.33
2023-03-14T21:57:51.507Z,49.65
2023-03-14T22:00:21.514Z,56.03
2023-03-14T22:03:12.867Z,57.00
2023-03-14T22:05:45.104Z,55.97
2023-03-14T22:10:56.791Z,53.97
2023-03-14T22:13:25.829Z,51.78
2023-03-14T22:15:55.192Z,50.67
2023-03-14T22:18:22.053Z,52.70
2023-03-14T22:20:51.313Z,49.50
2023-03-14T22:23:18.922Z,51.70
2023-03-14T22:25:49.467Z,51.22
2023-03-14T22:28:16.194Z,53.10
2023-03-14T22:31:22.688Z,48.42
2023-03-14T22:36:31.262Z,56.67
2023-03-14T22:38:58.441Z,46.58
2023-03-14T22:41:30.921Z,54.25
2023-03-14T22:46:47.326Z,54.50
2023-03-14T22:49:17.649Z,55.42
2023-03-14T22:51:55.555Z,51.10
2023-03-14T22:54:22.386Z,57.20
2023-03-14T22:56:52.047Z,53.65
2023-03-14T22:59:21.718Z,55.92
2023-03-14T23:01:51.504Z,56.33
2023-03-14T23:04:18.107Z,54.35
2023-03-14T23:06:49.953Z,51.25
2023-03-14T23:09:22.446Z,54.13
2023-03-14T23:11:49.035Z,55.35
2023-03-14T23:14:15.625Z,46.80
2023-03-14T23:16:44.898Z,65.65
2023-03-14T23:19:14.844Z,59.38
2023-03-14T23:21:41.510Z,52.78
2023-03-14T23:24:08.524Z,55.35
2023-03-14T23:26:46.132Z,57.75
2023-03-14T23:29:15.954Z,56.97
2023-03-14T23:31:45.635Z,57.58
2023-03-14T23:34:23.101Z,50.85
2023-03-14T23:36:49.580Z,59.55
2023-03-14T23:39:22.011Z,59.58
2023-03-14T23:41:49.128Z,55.35
2023-03-14T23:44:15.669Z,57.08
2023-03-14T23:46:45.165Z,54.33
2023-03-14T23:49:15.089Z,62.45
2023-03-14T23:51:54.845Z,52.72
2023-03-14T23:54:21.533Z,57.25
2023-03-14T23:56:48.157Z,61.88
2023-03-14T23:59:20.879Z,56.85
